sensor_id;sensor_type;location;lat;lon;timestamp;temperature;humidity
56771;DHT22;42641;59.794;17.616;2023-08-21T00:00:13;17.90;99.90
56771;DHT22;42641;59.794;17.616;2023-08-21T00:02:40;17.90;99.90
56771;DHT22;42641;59.794;17.616;2023-08-21T00:05:07;18.00;99.90
56771;DHT22;42641;59.794;17.616;2023-08-21T00:07:33;18.00;99.90
56771;DHT22;42641;59.794;17.616;2023-08-21T00:09:59;17.90;99.90
56771;DHT22;42641;59.794;17.616;2023-08-21T00:12:26;17.90;99.90
56771;DHT22;42641;59.794;17.616;2023-08-21T00:14:52;17.90;99.90
56771;DHT22;42641;59.794;17.616;2023-08-21T00:17:19;17.90;99.90
56771;DHT22;42641;59.794;17.616;2023-08-21T00:19:45;17.90;99.90
56771;DHT22;42641;59.794;17.616;2023-08-21T00:22:12;17.90;99.90
56771;DHT22;42641;59.794;17.616;2023-08-21T00:24:38;17.90;99.90
56771;DHT22;42641;59.794;17.616;2023-08-21T00:27:04;17.90;99.90
56771;DHT22;42641;59.794;17.616;2023-08-21T00:29:31;18.00;99.90
56771;DHT22;42641;59.794;17.616;2023-08-21T00:31:58;17.90;99.90
56771;DHT22;42641;59.794;17.616;2023-08-21T00:34:24;17.90;99.90
56771;DHT22;42641;59.794;17.616;2023-08-21T00:36:51;17.90;99.90
56771;DHT22;42641;59.794;17.616;2023-08-21T00:39:17;17.90;99.90
56771;DHT22;42641;59.794;17.616;2023-08-21T00:41:43;18.00;99.90
56771;DHT22;42641;59.794;17.616;2023-08-21T00:44:10;18.10;99.90
56771;DHT22;42641;59.794;17.616;2023-08-21T00:46:36;18.10;99.90
56771;DHT22;42641;59.794;17.616;2023-08-21T00:49:04;18.00;99.90
56771;DHT22;42641;59.794;17.616;2023-08-21T00:51:31;18.10;99.90
56771;DHT22;42641;59.794;17.616;2023-08-21T00:53:58;18.10;99.90
56771;DHT22;42641;59.794;17.616;2023-08-21T00:56:24;18.10;99.90
56771;DHT22;42641;59.794;17.616;2023-08-21T00:58:51;18.10;99.90
56771;DHT22;42641;59.794;17.616;2023-08-21T01:01:18;18.00;99.90
56771;DHT22;42641;59.794;17.616;2023-08-21T01:03:45;18.00;99.90
56771;DHT22;42641;59.794;17.616;2023-08-21T01:06:12;18.00;99.90
56771;DHT22;42641;59.794;17.616;2023-08-21T01:08:50;18.10;99.90
56771;DHT22;42641;59.794;17.616;2023-08-21T01:11:27;18.10;99.90
56771;DHT22;42641;59.794;17.616;2023-08-21T01:16:32;18.10;99.90
56771;DHT22;42641;59.794;17.616;2023-08-21T01:19:01;18.10;99.90
56771;DHT22;42641;59.794;17.616;2023-08-21T01:21:29;18.10;99.90
56771;DHT22;42641;59.794;17.616;2023-08-21T01:23:56;18.10;99.90
56771;DHT22;42641;59.794;17.616;2023-08-21T01:26:22;18.10;99.90
56771;DHT22;42641;59.794;17.616;2023-08-21T01:28:48;18.20;99.90
56771;DHT22;42641;59.794;17.616;2023-08-21T01:31:24;18.20;99.90
56771;DHT22;42641;59.794;17.616;2023-08-21T01:33:54;18.20;99.90
56771;DHT22;42641;59.794;17.616;2023-08-21T01:36:23;18.20;99.90
56771;DHT22;42641;59.794;17.616;2023-08-21T01:38:51;18.20;99.90
56771;DHT22;42641;59.794;17.616;2023-08-21T01:41:17;18.20;99.90
56771;DHT22;42641;59.794;17.616;2023-08-21T01:43:43;18.20;99.90
56771;DHT22;42641;59.794;17.616;2023-08-21T01:46:10;18.20;99.90
56771;DHT22;42641;59.794;17.616;2023-08-21T01:48:37;18.30;99.90
56771;DHT22;42641;59.794;17.616;2023-08-21T01:51:03;18.30;99.90
56771;DHT22;42641;59.794;17.616;2023-08-21T01:53:29;18.30;99.90
56771;DHT22;42641;59.794;17.616;2023-08-21T01:55:56;18.30;99.90
56771;DHT22;42641;59.794;17.616;2023-08-21T01:58:22;18.30;99.90
56771;DHT22;42641;59.794;17.616;2023-08-21T02:00:49;18.30;99.90
56771;DHT22;42641;59.794;17.616;2023-08-21T02:03:16;18.30;99.90
56771;DHT22;42641;59.794;17.616;2023-08-21T02:05:42;18.30;99.90
56771;DHT22;42641;59.794;17.616;2023-08-21T02:08:12;18.30;99.90
56771;DHT22;42641;59.794;17.616;2023-08-21T02:10:59;18.30;99.90
56771;DHT22;42641;59.794;17.616;2023-08-21T02:13:26;18.30;99.90
56771;DHT22;42641;59.794;17.616;2023-08-21T02:15:53;18.40;99.90
56771;DHT22;42641;59.794;17.616;2023-08-21T02:18:19;18.30;99.90
56771;DHT22;42641;59.794;17.616;2023-08-21T02:20:47;18.30;99.90
56771;DHT22;42641;59.794;17.616;2023-08-21T02:23:14;18.20;99.90
56771;DHT22;42641;59.794;17.616;2023-08-21T02:25:42;18.30;99.90
56771;DHT22;42641;59.794;17.616;2023-08-21T02:28:08;18.30;99.90
56771;DHT22;42641;59.794;17.616;2023-08-21T02:30:35;18.30;99.90
56771;DHT22;42641;59.794;17.616;2023-08-21T02:33:01;18.30;99.90
56771;DHT22;42641;59.794;17.616;2023-08-21T02:35:28;18.30;99.90
56771;DHT22;42641;59.794;17.616;2023-08-21T02:37:54;18.30;99.90
56771;DHT22;42641;59.794;17.616;2023-08-21T02:40:20;18.30;99.90
56771;DHT22;42641;59.794;17.616;2023-08-21T02:42:47;18.30;99.90
56771;DHT22;42641;59.794;17.616;2023-08-21T02:45:13;18.30;99.90
56771;DHT22;42641;59.794;17.616;2023-08-21T02:47:40;18.30;99.90
56771;DHT22;42641;59.794;17.616;2023-08-21T02:50:08;18.30;99.90
56771;DHT22;42641;59.794;17.616;2023-08-21T02:52:35;18.30;99.90
56771;DHT22;42641;59.794;17.616;2023-08-21T02:55:03;18.20;99.90
56771;DHT22;42641;59.794;17.616;2023-08-21T02:57:30;18.20;99.90
56771;DHT22;42641;59.794;17.616;2023-08-21T02:59:57;18.20;99.90
56771;DHT22;42641;59.794;17.616;2023-08-21T03:02:23;18.10;99.90
56771;DHT22;42641;59.794;17.616;2023-08-21T03:04:50;18.10;99.90
56771;DHT22;42641;59.794;17.616;2023-08-21T03:07:17;18.10;99.90
56771;DHT22;42641;59.794;17.616;2023-08-21T03:09:46;18.20;99.90
56771;DHT22;42641;59.794;17.616;2023-08-21T03:12:16;18.20;99.90
56771;DHT22;42641;59.794;17.616;2023-08-21T03:14:42;18.20;99.90
56771;DHT22;42641;59.794;17.616;2023-08-21T03:17:09;18.20;99.90
56771;DHT22;42641;59.794;17.616;2023-08-21T03:19:36;18.20;99.90
56771;DHT22;42641;59.794;17.616;2023-08-21T03:22:02;18.20;99.90
56771;DHT22;42641;59.794;17.616;2023-08-21T03:24:29;18.20;99.90
56771;DHT22;42641;59.794;17.616;2023-08-21T03:26:56;18.30;99.90
56771;DHT22;42641;59.794;17.616;2023-08-21T03:29:22;18.30;99.90
56771;DHT22;42641;59.794;17.616;2023-08-21T03:31:53;18.20;99.90
56771;DHT22;42641;59.794;17.616;2023-08-21T03:34:22;18.20;99.90
56771;DHT22;42641;59.794;17.616;2023-08-21T03:36:55;18.30;99.90
56771;DHT22;42641;59.794;17.616;2023-08-21T03:39:22;18.30;99.90
56771;DHT22;42641;59.794;17.616;2023-08-21T03:41:48;18.30;99.90
56771;DHT22;42641;59.794;17.616;2023-08-21T03:44:16;18.30;99.90
56771;DHT22;42641;59.794;17.616;2023-08-21T03:46:42;18.30;99.90
56771;DHT22;42641;59.794;17.616;2023-08-21T03:49:10;18.30;99.90
56771;DHT22;42641;59.794;17.616;2023-08-21T03:51:36;18.30;99.90
56771;DHT22;42641;59.794;17.616;2023-08-21T03:54:03;18.30;99.90
56771;DHT22;42641;59.794;17.616;2023-08-21T03:56:29;18.30;99.90
56771;DHT22;42641;59.794;17.616;2023-08-21T03:58:56;18.30;99.90
56771;DHT22;42641;59.794;17.616;2023-08-21T04:01:22;18.40;99.90
56771;DHT22;42641;59.794;17.616;2023-08-21T04:03:49;18.40;99.90
56771;DHT22;42641;59.794;17.616;2023-08-21T04:06:15;18.40;99.90
56771;DHT22;42641;59.794;17.616;2023-08-21T04:08:42;18.40;99.90
56771;DHT22;42641;59.794;17.616;2023-08-21T04:11:08;18.30;99.90
56771;DHT22;42641;59.794;17.616;2023-08-21T04:13:35;18.40;99.90
56771;DHT22;42641;59.794;17.616;2023-08-21T04:16:02;18.40;99.90
56771;DHT22;42641;59.794;17.616;2023-08-21T04:18:28;18.40;99.90
56771;DHT22;42641;59.794;17.616;2023-08-21T04:20:55;18.40;99.90
56771;DHT22;42641;59.794;17.616;2023-08-21T04:23:21;18.40;99.90
56771;DHT22;42641;59.794;17.616;2023-08-21T04:25:47;18.40;99.90
56771;DHT22;42641;59.794;17.616;2023-08-21T04:28:14;18.40;99.90
56771;DHT22;42641;59.794;17.616;2023-08-21T04:30:41;18.50;99.90
56771;DHT22;42641;59.794;17.616;2023-08-21T04:33:09;18.40;99.90
56771;DHT22;42641;59.794;17.616;2023-08-21T04:35:38;18.40;99.90
56771;DHT22;42641;59.794;17.616;2023-08-21T04:38:05;18.40;99.90
56771;DHT22;42641;59.794;17.616;2023-08-21T04:40:33;18.40;99.90
56771;DHT22;42641;59.794;17.616;2023-08-21T04:43:00;18.40;99.90
56771;DHT22;42641;59.794;17.616;2023-08-21T04:45:27;18.40;99.90
56771;DHT22;42641;59.794;17.616;2023-08-21T04:47:53;18.40;99.90
56771;DHT22;42641;59.794;17.616;2023-08-21T04:50:21;18.50;99.90
56771;DHT22;42641;59.794;17.616;2023-08-21T04:52:49;18.40;99.90
56771;DHT22;42641;59.794;17.616;2023-08-21T04:55:16;18.50;99.90
56771;DHT22;42641;59.794;17.616;2023-08-21T04:57:43;18.50;99.90
56771;DHT22;42641;59.794;17.616;2023-08-21T05:00:11;18.50;99.90
56771;DHT22;42641;59.794;17.616;2023-08-21T05:02:41;18.60;99.90
56771;DHT22;42641;59.794;17.616;2023-08-21T05:05:07;18.60;99.90
56771;DHT22;42641;59.794;17.616;2023-08-21T05:07:34;18.60;99.90
56771;DHT22;42641;59.794;17.616;2023-08-21T05:10:02;18.60;99.90
56771;DHT22;42641;59.794;17.616;2023-08-21T05:12:31;18.60;99.90
56771;DHT22;42641;59.794;17.616;2023-08-21T05:14:59;18.60;99.90
56771;DHT22;42641;59.794;17.616;2023-08-21T05:17:25;18.60;99.90
56771;DHT22;42641;59.794;17.616;2023-08-21T05:19:52;18.60;99.90
56771;DHT22;42641;59.794;17.616;2023-08-21T05:22:19;18.50;99.90
56771;DHT22;42641;59.794;17.616;2023-08-21T05:24:47;18.50;99.90
56771;DHT22;42641;59.794;17.616;2023-08-21T05:27:13;18.40;99.90
56771;DHT22;42641;59.794;17.616;2023-08-21T05:29:40;18.50;99.90
56771;DHT22;42641;59.794;17.616;2023-08-21T05:32:06;18.60;99.90
56771;DHT22;42641;59.794;17.616;2023-08-21T05:34:33;18.60;99.90
56771;DHT22;42641;59.794;17.616;2023-08-21T05:37:00;18.70;99.90
56771;DHT22;42641;59.794;17.616;2023-08-21T05:39:26;18.70;99.90
56771;DHT22;42641;59.794;17.616;2023-08-21T05:41:52;18.70;99.90
56771;DHT22;42641;59.794;17.616;2023-08-21T05:44:20;18.60;99.90
56771;DHT22;42641;59.794;17.616;2023-08-21T05:46:46;18.70;99.90
56771;DHT22;42641;59.794;17.616;2023-08-21T05:49:13;18.70;99.90
56771;DHT22;42641;59.794;17.616;2023-08-21T05:51:39;18.70;99.90
56771;DHT22;42641;59.794;17.616;2023-08-21T05:54:08;18.70;99.90
56771;DHT22;42641;59.794;17.616;2023-08-21T05:56:36;18.70;99.90
56771;DHT22;42641;59.794;17.616;2023-08-21T05:59:02;18.80;99.90
56771;DHT22;42641;59.794;17.616;2023-08-21T06:01:29;18.80;99.90
56771;DHT22;42641;59.794;17.616;2023-08-21T06:03:55;18.80;99.90
56771;DHT22;42641;59.794;17.616;2023-08-21T06:06:29;18.80;99.90
56771;DHT22;42641;59.794;17.616;2023-08-21T06:08:56;18.80;99.90
56771;DHT22;42641;59.794;17.616;2023-08-21T06:11:22;18.90;99.90
56771;DHT22;42641;59.794;17.616;2023-08-21T06:13:49;19.00;99.90
56771;DHT22;42641;59.794;17.616;2023-08-21T06:16:16;19.00;99.90
56771;DHT22;42641;59.794;17.616;2023-08-21T06:18:45;19.00;99.90
56771;DHT22;42641;59.794;17.616;2023-08-21T06:21:12;19.10;99.90
56771;DHT22;42641;59.794;17.616;2023-08-21T06:23:38;19.00;99.90
56771;DHT22;42641;59.794;17.616;2023-08-21T06:26:05;19.00;99.90
56771;DHT22;42641;59.794;17.616;2023-08-21T06:28:31;19.00;99.90
56771;DHT22;42641;59.794;17.616;2023-08-21T06:30:58;19.00;99.90
56771;DHT22;42641;59.794;17.616;2023-08-21T06:33:25;19.10;99.90
56771;DHT22;42641;59.794;17.616;2023-08-21T06:35:51;19.30;99.90
56771;DHT22;42641;59.794;17.616;2023-08-21T06:38:17;19.40;99.90
56771;DHT22;42641;59.794;17.616;2023-08-21T06:40:45;19.50;99.90
56771;DHT22;42641;59.794;17.616;2023-08-21T06:43:12;19.50;99.90
56771;DHT22;42641;59.794;17.616;2023-08-21T06:45:43;19.50;99.90
56771;DHT22;42641;59.794;17.616;2023-08-21T06:48:09;19.50;99.90
56771;DHT22;42641;59.794;17.616;2023-08-21T06:50:37;19.50;99.90
56771;DHT22;42641;59.794;17.616;2023-08-21T06:53:03;19.50;99.90
56771;DHT22;42641;59.794;17.616;2023-08-21T06:55:30;19.50;99.90
56771;DHT22;42641;59.794;17.616;2023-08-21T06:57:56;19.40;99.90
56771;DHT22;42641;59.794;17.616;2023-08-21T07:00:23;19.40;99.90
56771;DHT22;42641;59.794;17.616;2023-08-21T07:02:49;19.50;99.90
56771;DHT22;42641;59.794;17.616;2023-08-21T07:05:15;19.50;99.90
56771;DHT22;42641;59.794;17.616;2023-08-21T07:07:42;19.60;99.90
56771;DHT22;42641;59.794;17.616;2023-08-21T07:10:09;19.60;99.90
56771;DHT22;42641;59.794;17.616;2023-08-21T07:12:35;19.80;99.90
56771;DHT22;42641;59.794;17.616;2023-08-21T07:15:01;19.80;99.90
56771;DHT22;42641;59.794;17.616;2023-08-21T07:17:29;19.80;99.90
56771;DHT22;42641;59.794;17.616;2023-08-21T07:19:56;19.80;99.90
56771;DHT22;42641;59.794;17.616;2023-08-21T07:22:23;19.80;99.90
56771;DHT22;42641;59.794;17.616;2023-08-21T07:24:49;19.80;99.90
56771;DHT22;42641;59.794;17.616;2023-08-21T07:27:15;19.90;99.90
56771;DHT22;42641;59.794;17.616;2023-08-21T07:29:42;20.10;99.90
56771;DHT22;42641;59.794;17.616;2023-08-21T07:32:08;20.20;99.90
56771;DHT22;42641;59.794;17.616;2023-08-21T07:34:35;20.30;99.90
56771;DHT22;42641;59.794;17.616;2023-08-21T07:37:01;20.30;99.90
56771;DHT22;42641;59.794;17.616;2023-08-21T07:39:27;20.30;99.90
56771;DHT22;42641;59.794;17.616;2023-08-21T07:41:54;20.30;99.90
56771;DHT22;42641;59.794;17.616;2023-08-21T07:44:20;20.30;99.90
56771;DHT22;42641;59.794;17.616;2023-08-21T07:46:47;20.20;99.90
56771;DHT22;42641;59.794;17.616;2023-08-21T07:49:13;20.20;99.90
56771;DHT22;42641;59.794;17.616;2023-08-21T07:51:39;20.30;99.90
56771;DHT22;42641;59.794;17.616;2023-08-21T07:54:06;20.40;99.90
56771;DHT22;42641;59.794;17.616;2023-08-21T07:56:32;20.50;99.90
56771;DHT22;42641;59.794;17.616;2023-08-21T07:58:59;20.60;99.90
56771;DHT22;42641;59.794;17.616;2023-08-21T08:01:25;20.60;99.90
56771;DHT22;42641;59.794;17.616;2023-08-21T08:03:51;20.40;99.90
56771;DHT22;42641;59.794;17.616;2023-08-21T08:06:18;20.30;99.90
56771;DHT22;42641;59.794;17.616;2023-08-21T08:08:45;20.20;99.90
56771;DHT22;42641;59.794;17.616;2023-08-21T08:11:12;20.10;99.90
56771;DHT22;42641;59.794;17.616;2023-08-21T08:13:38;20.10;99.90
56771;DHT22;42641;59.794;17.616;2023-08-21T08:16:04;20.20;99.90
56771;DHT22;42641;59.794;17.616;2023-08-21T08:18:31;20.20;99.90
56771;DHT22;42641;59.794;17.616;2023-08-21T08:20:57;20.30;99.90
56771;DHT22;42641;59.794;17.616;2023-08-21T08:23:24;20.40;99.90
56771;DHT22;42641;59.794;17.616;2023-08-21T08:25:50;20.50;99.90
56771;DHT22;42641;59.794;17.616;2023-08-21T08:28:17;20.50;99.90
56771;DHT22;42641;59.794;17.616;2023-08-21T08:30:43;20.60;99.90
56771;DHT22;42641;59.794;17.616;2023-08-21T08:33:10;20.70;99.90
56771;DHT22;42641;59.794;17.616;2023-08-21T08:35:36;20.80;99.90
56771;DHT22;42641;59.794;17.616;2023-08-21T08:38:02;20.90;99.90
56771;DHT22;42641;59.794;17.616;2023-08-21T08:40:29;21.10;99.90
56771;DHT22;42641;59.794;17.616;2023-08-21T08:42:56;21.20;99.90
56771;DHT22;42641;59.794;17.616;2023-08-21T08:45:29;21.30;99.90
56771;DHT22;42641;59.794;17.616;2023-08-21T08:48:00;21.20;99.90
56771;DHT22;42641;59.794;17.616;2023-08-21T08:50:31;21.30;99.90
56771;DHT22;42641;59.794;17.616;2023-08-21T08:52:58;21.30;99.90
56771;DHT22;42641;59.794;17.616;2023-08-21T08:55:25;21.50;99.90
56771;DHT22;42641;59.794;17.616;2023-08-21T08:57:53;21.60;99.90
56771;DHT22;42641;59.794;17.616;2023-08-21T09:00:20;21.60;99.90
56771;DHT22;42641;59.794;17.616;2023-08-21T09:02:46;21.70;99.90
56771;DHT22;42641;59.794;17.616;2023-08-21T09:05:13;21.70;99.90
56771;DHT22;42641;59.794;17.616;2023-08-21T09:07:39;21.80;99.90
56771;DHT22;42641;59.794;17.616;2023-08-21T09:10:14;21.80;99.90
56771;DHT22;42641;59.794;17.616;2023-08-21T09:12:44;21.80;99.90
56771;DHT22;42641;59.794;17.616;2023-08-21T09:15:11;21.60;99.90
56771;DHT22;42641;59.794;17.616;2023-08-21T09:17:37;21.50;99.90
56771;DHT22;42641;59.794;17.616;2023-08-21T09:20:05;21.20;99.90
56771;DHT22;42641;59.794;17.616;2023-08-21T09:22:31;21.20;99.90
56771;DHT22;42641;59.794;17.616;2023-08-21T09:25:04;21.20;99.90
56771;DHT22;42641;59.794;17.616;2023-08-21T09:27:37;21.20;99.90
56771;DHT22;42641;59.794;17.616;2023-08-21T09:30:05;21.30;99.90
56771;DHT22;42641;59.794;17.616;2023-08-21T09:32:52;21.50;99.90
56771;DHT22;42641;59.794;17.616;2023-08-21T09:35:20;21.80;99.90
56771;DHT22;42641;59.794;17.616;2023-08-21T09:37:47;21.90;99.90
56771;DHT22;42641;59.794;17.616;2023-08-21T09:40:15;21.90;99.90
56771;DHT22;42641;59.794;17.616;2023-08-21T09:42:42;22.10;99.90
56771;DHT22;42641;59.794;17.616;2023-08-21T09:45:09;22.20;99.90
56771;DHT22;42641;59.794;17.616;2023-08-21T09:47:36;22.30;99.90
56771;DHT22;42641;59.794;17.616;2023-08-21T09:50:05;22.50;99.90
56771;DHT22;42641;59.794;17.616;2023-08-21T09:52:32;22.50;99.90
56771;DHT22;42641;59.794;17.616;2023-08-21T09:55:17;22.40;99.90
56771;DHT22;42641;59.794;17.616;2023-08-21T09:57:44;22.30;99.90
56771;DHT22;42641;59.794;17.616;2023-08-21T10:00:11;22.20;99.90
56771;DHT22;42641;59.794;17.616;2023-08-21T10:02:51;22.40;99.90
56771;DHT22;42641;59.794;17.616;2023-08-21T10:05:18;22.60;99.90
56771;DHT22;42641;59.794;17.616;2023-08-21T10:07:49;22.50;99.90
56771;DHT22;42641;59.794;17.616;2023-08-21T10:10:17;22.30;99.90
56771;DHT22;42641;59.794;17.616;2023-08-21T10:12:43;22.20;99.90
56771;DHT22;42641;59.794;17.616;2023-08-21T10:15:10;22.40;99.90
56771;DHT22;42641;59.794;17.616;2023-08-21T10:17:37;22.60;99.90
56771;DHT22;42641;59.794;17.616;2023-08-21T10:20:05;22.80;99.90
56771;DHT22;42641;59.794;17.616;2023-08-21T10:22:45;23.00;99.90
56771;DHT22;42641;59.794;17.616;2023-08-21T10:27:50;23.20;99.90
56771;DHT22;42641;59.794;17.616;2023-08-21T10:30:23;23.40;99.90
56771;DHT22;42641;59.794;17.616;2023-08-21T10:32:54;23.10;99.90
56771;DHT22;42641;59.794;17.616;2023-08-21T10:35:23;22.90;99.90
56771;DHT22;42641;59.794;17.616;2023-08-21T10:40:40;23.50;99.90
56771;DHT22;42641;59.794;17.616;2023-08-21T10:43:45;23.50;99.90
56771;DHT22;42641;59.794;17.616;2023-08-21T10:46:12;23.30;99.90
56771;DHT22;42641;59.794;17.616;2023-08-21T10:48:39;23.20;99.90
56771;DHT22;42641;59.794;17.616;2023-08-21T10:51:07;23.30;99.90
56771;DHT22;42641;59.794;17.616;2023-08-21T10:53:35;23.60;99.90
56771;DHT22;42641;59.794;17.616;2023-08-21T10:56:03;24.00;99.90
56771;DHT22;42641;59.794;17.616;2023-08-21T10:58:56;24.20;99.90
56771;DHT22;42641;59.794;17.616;2023-08-21T11:01:23;24.40;99.90
56771;DHT22;42641;59.794;17.616;2023-08-21T11:03:53;24.50;99.90
56771;DHT22;42641;59.794;17.616;2023-08-21T11:06:19;24.60;99.90
56771;DHT22;42641;59.794;17.616;2023-08-21T11:08:46;24.50;99.90
56771;DHT22;42641;59.794;17.616;2023-08-21T11:11:12;24.60;99.90
56771;DHT22;42641;59.794;17.616;2023-08-21T11:13:39;24.60;99.90
56771;DHT22;42641;59.794;17.616;2023-08-21T11:16:06;24.80;99.90
56771;DHT22;42641;59.794;17.616;2023-08-21T11:18:41;25.40;99.90
56771;DHT22;42641;59.794;17.616;2023-08-21T11:21:10;25.30;99.90
56771;DHT22;42641;59.794;17.616;2023-08-21T11:23:41;25.00;99.90
56771;DHT22;42641;59.794;17.616;2023-08-21T11:26:12;25.50;99.90
56771;DHT22;42641;59.794;17.616;2023-08-21T11:28:38;26.00;99.90
56771;DHT22;42641;59.794;17.616;2023-08-21T11:31:06;26.70;99.90
56771;DHT22;42641;59.794;17.616;2023-08-21T11:33:32;27.30;99.90
56771;DHT22;42641;59.794;17.616;2023-08-21T11:35:59;27.30;99.90
56771;DHT22;42641;59.794;17.616;2023-08-21T11:38:27;27.40;99.90
56771;DHT22;42641;59.794;17.616;2023-08-21T11:40:58;27.50;99.90
56771;DHT22;42641;59.794;17.616;2023-08-21T11:43:41;27.70;99.90
56771;DHT22;42641;59.794;17.616;2023-08-21T11:46:09;27.10;99.90
56771;DHT22;42641;59.794;17.616;2023-08-21T11:48:41;27.00;99.90
56771;DHT22;42641;59.794;17.616;2023-08-21T11:51:08;27.40;99.90
56771;DHT22;42641;59.794;17.616;2023-08-21T11:53:39;27.00;99.90
56771;DHT22;42641;59.794;17.616;2023-08-21T11:56:28;26.60;99.90
56771;DHT22;42641;59.794;17.616;2023-08-21T11:58:55;26.60;99.90
56771;DHT22;42641;59.794;17.616;2023-08-21T12:01:21;27.00;99.90
56771;DHT22;42641;59.794;17.616;2023-08-21T12:03:48;27.50;99.90
56771;DHT22;42641;59.794;17.616;2023-08-21T12:06:21;27.90;99.90
56771;DHT22;42641;59.794;17.616;2023-08-21T12:08:48;27.80;99.90
56771;DHT22;42641;59.794;17.616;2023-08-21T12:11:15;27.40;99.90
56771;DHT22;42641;59.794;17.616;2023-08-21T12:13:41;27.10;99.90
56771;DHT22;42641;59.794;17.616;2023-08-21T12:16:08;27.20;99.90
56771;DHT22;42641;59.794;17.616;2023-08-21T12:18:35;26.90;99.90
56771;DHT22;42641;59.794;17.616;2023-08-21T12:21:01;26.80;99.90
56771;DHT22;42641;59.794;17.616;2023-08-21T12:23:30;26.70;99.90
56771;DHT22;42641;59.794;17.616;2023-08-21T12:25:57;27.00;99.90
56771;DHT22;42641;59.794;17.616;2023-08-21T12:28:23;27.50;99.90
56771;DHT22;42641;59.794;17.616;2023-08-21T12:30:50;27.70;99.90
56771;DHT22;42641;59.794;17.616;2023-08-21T12:33:16;27.70;99.90
56771;DHT22;42641;59.794;17.616;2023-08-21T12:35:42;27.80;99.90
56771;DHT22;42641;59.794;17.616;2023-08-21T12:38:11;27.90;99.90
56771;DHT22;42641;59.794;17.616;2023-08-21T12:40:39;28.20;99.90
56771;DHT22;42641;59.794;17.616;2023-08-21T12:43:06;28.40;99.90
56771;DHT22;42641;59.794;17.616;2023-08-21T12:45:32;28.70;99.90
56771;DHT22;42641;59.794;17.616;2023-08-21T12:47:58;28.60;99.90
56771;DHT22;42641;59.794;17.616;2023-08-21T12:50:25;28.50;99.90
56771;DHT22;42641;59.794;17.616;2023-08-21T12:52:51;28.60;99.90
56771;DHT22;42641;59.794;17.616;2023-08-21T12:55:18;28.70;99.90
56771;DHT22;42641;59.794;17.616;2023-08-21T12:57:44;28.90;99.90
56771;DHT22;42641;59.794;17.616;2023-08-21T13:00:11;29.10;99.90
56771;DHT22;42641;59.794;17.616;2023-08-21T13:02:38;29.50;99.90
56771;DHT22;42641;59.794;17.616;2023-08-21T13:05:04;29.20;99.60
56771;DHT22;42641;59.794;17.616;2023-08-21T13:07:32;29.10;99.90
56771;DHT22;42641;59.794;17.616;2023-08-21T13:09:59;29.30;99.90
56771;DHT22;42641;59.794;17.616;2023-08-21T13:12:25;29.60;98.90
56771;DHT22;42641;59.794;17.616;2023-08-21T13:14:51;29.80;98.90
56771;DHT22;42641;59.794;17.616;2023-08-21T13:17:18;29.70;97.50
56771;DHT22;42641;59.794;17.616;2023-08-21T13:19:45;29.70;98.30
56771;DHT22;42641;59.794;17.616;2023-08-21T13:22:11;29.90;97.40
56771;DHT22;42641;59.794;17.616;2023-08-21T13:24:37;29.90;96.90
56771;DHT22;42641;59.794;17.616;2023-08-21T13:27:04;29.90;97.50
56771;DHT22;42641;59.794;17.616;2023-08-21T13:29:30;29.70;96.70
56771;DHT22;42641;59.794;17.616;2023-08-21T13:31:57;29.40;98.40
56771;DHT22;42641;59.794;17.616;2023-08-21T13:34:23;29.30;97.10
56771;DHT22;42641;59.794;17.616;2023-08-21T13:36:49;29.80;97.20
56771;DHT22;42641;59.794;17.616;2023-08-21T13:39:16;30.50;98.10
56771;DHT22;42641;59.794;17.616;2023-08-21T13:41:43;30.70;96.80
56771;DHT22;42641;59.794;17.616;2023-08-21T13:44:09;30.90;97.90
56771;DHT22;42641;59.794;17.616;2023-08-21T13:46:36;30.90;97.50
56771;DHT22;42641;59.794;17.616;2023-08-21T13:49:02;29.90;97.00
56771;DHT22;42641;59.794;17.616;2023-08-21T13:51:28;29.20;98.00
56771;DHT22;42641;59.794;17.616;2023-08-21T13:53:55;29.40;98.40
56771;DHT22;42641;59.794;17.616;2023-08-21T13:56:21;29.20;97.60
56771;DHT22;42641;59.794;17.616;2023-08-21T13:58:48;28.60;97.20
56771;DHT22;42641;59.794;17.616;2023-08-21T14:01:14;28.40;97.60
56771;DHT22;42641;59.794;17.616;2023-08-21T14:03:41;28.40;98.20
56771;DHT22;42641;59.794;17.616;2023-08-21T14:06:08;28.60;97.30
56771;DHT22;42641;59.794;17.616;2023-08-21T14:08:38;28.90;96.80
56771;DHT22;42641;59.794;17.616;2023-08-21T14:11:04;29.50;97.40
56771;DHT22;42641;59.794;17.616;2023-08-21T14:13:31;30.00;97.10
56771;DHT22;42641;59.794;17.616;2023-08-21T14:15:57;30.00;95.90
56771;DHT22;42641;59.794;17.616;2023-08-21T14:18:23;30.20;96.70
56771;DHT22;42641;59.794;17.616;2023-08-21T14:20:50;30.80;96.10
56771;DHT22;42641;59.794;17.616;2023-08-21T14:23:16;30.70;94.70
56771;DHT22;42641;59.794;17.616;2023-08-21T14:25:43;30.70;94.30
56771;DHT22;42641;59.794;17.616;2023-08-21T14:28:09;30.50;93.40
56771;DHT22;42641;59.794;17.616;2023-08-21T14:30:35;30.60;93.40
56771;DHT22;42641;59.794;17.616;2023-08-21T14:33:02;30.30;93.90
56771;DHT22;42641;59.794;17.616;2023-08-21T14:35:28;29.40;94.40
56771;DHT22;42641;59.794;17.616;2023-08-21T14:37:55;28.60;96.70
56771;DHT22;42641;59.794;17.616;2023-08-21T14:40:21;28.30;97.00
56771;DHT22;42641;59.794;17.616;2023-08-21T14:42:48;28.40;96.10
56771;DHT22;42641;59.794;17.616;2023-08-21T14:45:14;28.60;96.40
56771;DHT22;42641;59.794;17.616;2023-08-21T14:47:40;29.10;95.90
56771;DHT22;42641;59.794;17.616;2023-08-21T14:50:09;29.30;95.60
56771;DHT22;42641;59.794;17.616;2023-08-21T14:52:35;29.40;95.10
56771;DHT22;42641;59.794;17.616;2023-08-21T14:55:02;28.60;95.20
56771;DHT22;42641;59.794;17.616;2023-08-21T14:57:28;28.10;96.00
56771;DHT22;42641;59.794;17.616;2023-08-21T14:59:55;27.60;96.10
56771;DHT22;42641;59.794;17.616;2023-08-21T15:02:22;27.00;97.70
56771;DHT22;42641;59.794;17.616;2023-08-21T15:04:48;26.90;97.70
56771;DHT22;42641;59.794;17.616;2023-08-21T15:07:15;27.50;97.90
56771;DHT22;42641;59.794;17.616;2023-08-21T15:09:41;28.10;97.00
56771;DHT22;42641;59.794;17.616;2023-08-21T15:12:08;28.30;96.50
56771;DHT22;42641;59.794;17.616;2023-08-21T15:14:35;28.20;96.00
56771;DHT22;42641;59.794;17.616;2023-08-21T15:17:02;27.70;96.70
56771;DHT22;42641;59.794;17.616;2023-08-21T15:19:28;27.10;97.30
56771;DHT22;42641;59.794;17.616;2023-08-21T15:21:55;26.90;97.80
56771;DHT22;42641;59.794;17.616;2023-08-21T15:24:21;27.00;98.50